Time;durP1;ratioP1;P1;durP2;ratioP2;P2;SDS_P1;SDS_P2;PMS_P1;PMS_P2;Temp;Humidity;BMP_temperature;BMP_pressure;BME280_temperature;BME280_humidity;BME280_pressure;Samples;Min_cycle;Max_cycle;Signal;HPM_P1;HPM_P2
2021/10/03 00:01:58;;;;;;;9.45;4.00;;;;;;;;;;4945810;28;21667;-60
2021/10/03 00:04:34;;;;;;;11.55;4.55;;;;;;;;;;4935287;28;20101;-60
2021/10/03 00:07:00;;;;;;;6.43;3.90;;;;;;;;;;4949605;28;20040;-59
2021/10/03 00:09:27;;;;;;;5.68;3.67;;;;;;;;;;4937638;28;20030;-59
2021/10/03 00:11:55;;;;;;;5.68;3.63;;;;;;;;;;4950455;28;20045;-59
2021/10/03 00:14:22;;;;;;;5.93;3.67;;;;;;;;;;4952086;28;20034;-60
2021/10/03 00:16:55;;;;;;;7.97;4.07;;;;;;;;;;4965990;28;20034;-58
2021/10/03 00:19:22;;;;;;;7.57;4.00;;;;;;;;;;4952792;28;20557;-59
2021/10/03 00:21:51;;;;;;;7.72;3.53;;;;;;;;;;4968758;28;20049;-59
2021/10/03 00:24:16;;;;;;;8.52;3.40;;;;;;;;;;4952172;28;20042;-59
2021/10/03 00:26:42;;;;;;;6.93;2.90;;;;;;;;;;4935267;28;20038;-61
2021/10/03 00:29:10;;;;;;;5.55;3.58;;;;;;;;;;4952538;28;20064;-60
2021/10/03 00:31:38;;;;;;;7.22;3.55;;;;;;;;;;4967553;28;22263;-59
2021/10/03 00:34:06;;;;;;;4.97;3.20;;;;;;;;;;4921005;28;20031;-58
2021/10/03 00:36:31;;;;;;;5.60;2.80;;;;;;;;;;4926226;28;20438;-59
2021/10/03 00:38:59;;;;;;;4.63;2.65;;;;;;;;;;4966598;28;20027;-58
2021/10/03 00:41:25;;;;;;;4.20;2.47;;;;;;;;;;4947544;28;20116;-58
2021/10/03 00:43:51;;;;;;;6.55;2.90;;;;;;;;;;4948461;28;20039;-60
2021/10/03 00:46:16;;;;;;;3.95;2.40;;;;;;;;;;4950376;28;20037;-59
2021/10/03 00:48:46;;;;;;;10.25;2.88;;;;;;;;;;4935050;28;20049;-58
2021/10/03 00:51:12;;;;;;;5.13;2.45;;;;;;;;;;4912904;28;20058;-58
2021/10/03 00:53:40;;;;;;;4.10;2.50;;;;;;;;;;4949252;28;20158;-58
2021/10/03 00:56:07;;;;;;;2.03;1.73;;;;;;;;;;4936122;28;20093;-58
2021/10/03 00:58:32;;;;;;;3.55;2.13;;;;;;;;;;4934550;28;20030;-58
2021/10/03 01:00:58;;;;;;;11.82;2.30;;;;;;;;;;4949886;28;20045;-58
2021/10/03 01:03:29;;;;;;;3.13;2.10;;;;;;;;;;4963938;28;20080;-58
2021/10/03 01:05:57;;;;;;;2.92;1.92;;;;;;;;;;4951634;28;20105;-58
2021/10/03 01:08:25;;;;;;;2.70;1.35;;;;;;;;;;4934724;28;20054;-59
2021/10/03 01:10:53;;;;;;;2.50;1.63;;;;;;;;;;4937464;28;20084;-60
2021/10/03 01:13:18;;;;;;;2.90;1.42;;;;;;;;;;4933817;28;20029;-59
2021/10/03 01:15:44;;;;;;;3.13;1.20;;;;;;;;;;4968379;28;20049;-59
2021/10/03 01:18:11;;;;;;;2.05;1.27;;;;;;;;;;4950216;28;20734;-59
2021/10/03 01:20:42;;;;;;;1.83;1.10;;;;;;;;;;4967510;28;20026;-59
2021/10/03 01:23:07;;;;;;;2.08;0.90;;;;;;;;;;4951197;28;20038;-59
2021/10/03 01:25:39;;;;;;;1.20;1.10;;;;;;;;;;4955735;28;20117;-58
2021/10/03 01:28:07;;;;;;;1.67;1.08;;;;;;;;;;4965264;28;20045;-60
2021/10/03 01:30:35;;;;;;;1.30;1.10;;;;;;;;;;4939014;28;20065;-59
2021/10/03 01:33:03;;;;;;;1.33;0.93;;;;;;;;;;4931964;28;20046;-58
2021/10/03 01:35:31;;;;;;;1.38;1.27;;;;;;;;;;4949707;28;20129;-59
2021/10/03 01:37:59;;;;;;;1.30;1.13;;;;;;;;;;4966817;28;20037;-58
2021/10/03 01:40:25;;;;;;;3.22;1.17;;;;;;;;;;4935176;28;20030;-59
2021/10/03 01:42:53;;;;;;;0.75;0.70;;;;;;;;;;4921076;28;20041;-58
2021/10/03 01:45:20;;;;;;;2.65;0.80;;;;;;;;;;4937181;28;20038;-59
2021/10/03 01:48:07;;;;;;;1.45;0.90;;;;;;;;;;4950686;28;20445;-60
2021/10/03 01:50:34;;;;;;;0.80;0.75;;;;;;;;;;4932989;28;20150;-59
2021/10/03 01:53:00;;;;;;;4.07;1.08;;;;;;;;;;4945271;28;20400;-59
2021/10/03 01:55:28;;;;;;;2.95;0.80;;;;;;;;;;4950934;28;20045;-59
2021/10/03 01:57:56;;;;;;;0.90;0.70;;;;;;;;;;4940093;28;20026;-58
2021/10/03 02:00:24;;;;;;;0.98;0.77;;;;;;;;;;4966729;28;20039;-58
2021/10/03 02:02:57;;;;;;;0.40;0.40;;;;;;;;;;4933647;28;20057;-58
2021/10/03 02:05:25;;;;;;;5.55;0.73;;;;;;;;;;4962895;28;20061;-60
2021/10/03 02:07:53;;;;;;;1.17;0.90;;;;;;;;;;4948480;28;20105;-59
2021/10/03 02:10:19;;;;;;;0.82;0.70;;;;;;;;;;4950706;28;20049;-60
2021/10/03 02:12:47;;;;;;;0.98;0.77;;;;;;;;;;4933519;28;20022;-59
2021/10/03 02:15:12;;;;;;;1.17;0.50;;;;;;;;;;4917335;28;20042;-61
2021/10/03 02:17:42;;;;;;;2.67;0.80;;;;;;;;;;4934831;28;20038;-63
2021/10/03 02:20:08;;;;;;;2.40;0.98;;;;;;;;;;4931479;28;20151;-59
2021/10/03 02:22:33;;;;;;;0.57;0.50;;;;;;;;;;4929902;28;20540;-59
2021/10/03 02:25:04;;;;;;;1.83;0.90;;;;;;;;;;4934508;28;20034;-59
2021/10/03 02:27:30;;;;;;;1.00;0.50;;;;;;;;;;4947824;28;20469;-59
2021/10/03 02:29:57;;;;;;;1.95;0.80;;;;;;;;;;4933788;28;20034;-60
2021/10/03 02:32:23;;;;;;;0.65;0.60;;;;;;;;;;4945234;28;20149;-60
2021/10/03 02:34:48;;;;;;;0.40;0.40;;;;;;;;;;4929666;28;20031;-61
2021/10/03 02:37:16;;;;;;;2.53;0.68;;;;;;;;;;4930232;28;22019;-60
2021/10/03 02:39:41;;;;;;;0.40;0.40;;;;;;;;;;4929972;28;20034;-60
2021/10/03 02:42:07;;;;;;;1.50;0.60;;;;;;;;;;4944979;28;20031;-59
2021/10/03 02:44:33;;;;;;;0.88;0.68;;;;;;;;;;4946636;28;20039;-60
2021/10/03 02:46:58;;;;;;;1.73;0.57;;;;;;;;;;4941710;28;20039;-61
2021/10/03 02:49:31;;;;;;;0.65;0.43;;;;;;;;;;4946007;28;20176;-60
2021/10/03 02:51:58;;;;;;;0.70;0.40;;;;;;;;;;4930417;28;20038;-61
2021/10/03 02:54:23;;;;;;;0.85;0.55;;;;;;;;;;4934094;28;20034;-59
2021/10/03 02:56:51;;;;;;;0.75;0.50;;;;;;;;;;4928489;28;20117;-59
2021/10/03 02:59:16;;;;;;;1.55;0.77;;;;;;;;;;4946390;28;20640;-58
2021/10/03 03:01:44;;;;;;;0.90;0.47;;;;;;;;;;4931885;28;20130;-60
2021/10/03 03:04:10;;;;;;;0.28;0.20;;;;;;;;;;4946601;28;21004;-59
2021/10/03 03:06:40;;;;;;;1.10;0.50;;;;;;;;;;4918762;28;20109;-60
2021/10/03 03:09:07;;;;;;;1.65;0.60;;;;;;;;;;4947325;28;20038;-59
2021/10/03 03:11:33;;;;;;;1.05;0.70;;;;;;;;;;4944040;28;20034;-60
2021/10/03 03:14:01;;;;;;;1.52;0.50;;;;;;;;;;4928681;28;20043;-59
2021/10/03 03:16:28;;;;;;;0.50;0.40;;;;;;;;;;4929442;28;20038;-58
2021/10/03 03:18:54;;;;;;;0.50;0.40;;;;;;;;;;4918596;28;20042;-59
2021/10/03 03:21:19;;;;;;;1.23;0.60;;;;;;;;;;4914333;28;20041;-58
2021/10/03 03:23:45;;;;;;;2.70;0.68;;;;;;;;;;4942405;28;21904;-59
2021/10/03 03:26:10;;;;;;;1.15;0.60;;;;;;;;;;4931515;28;20085;-58
2021/10/03 03:28:39;;;;;;;4.85;0.70;;;;;;;;;;4946264;28;20027;-58
2021/10/03 03:31:04;;;;;;;7.45;1.02;;;;;;;;;;4913438;28;20116;-58
2021/10/03 03:33:36;;;;;;;1.08;0.40;;;;;;;;;;4944563;28;20558;-59
2021/10/03 03:36:02;;;;;;;0.90;0.70;;;;;;;;;;4926261;28;20063;-58
2021/10/03 03:38:35;;;;;;;3.35;0.70;;;;;;;;;;4909779;28;20031;-58
2021/10/03 03:41:03;;;;;;;0.70;0.50;;;;;;;;;;4962496;28;20027;-58
2021/10/03 03:43:31;;;;;;;2.88;0.60;;;;;;;;;;4942640;28;20058;-58
2021/10/03 03:45:59;;;;;;;0.80;0.70;;;;;;;;;;4946762;28;20026;-58
2021/10/03 03:48:25;;;;;;;2.78;0.65;;;;;;;;;;4945636;28;20031;-58
2021/10/03 03:50:51;;;;;;;3.03;0.80;;;;;;;;;;4958369;28;20038;-58
2021/10/03 03:53:16;;;;;;;1.90;1.23;;;;;;;;;;4946301;28;20063;-58
2021/10/03 03:55:42;;;;;;;0.70;0.70;;;;;;;;;;4959098;28;20931;-58
2021/10/03 03:58:10;;;;;;;1.50;0.88;;;;;;;;;;4912733;28;20122;-59
2021/10/03 04:00:35;;;;;;;2.05;1.55;;;;;;;;;;4944865;28;20509;-59
2021/10/03 04:03:01;;;;;;;3.35;1.75;;;;;;;;;;4946271;28;20035;-60
2021/10/03 04:05:27;;;;;;;3.30;1.48;;;;;;;;;;4926649;28;20057;-59
2021/10/03 04:07:52;;;;;;;3.05;0.90;;;;;;;;;;4932092;28;20039;-59
2021/10/03 04:10:18;;;;;;;8.75;1.10;;;;;;;;;;4917082;28;20043;-59
2021/10/03 04:12:43;;;;;;;0.50;0.30;;;;;;;;;;4950868;28;20034;-59
2021/10/03 04:15:09;;;;;;;4.57;0.80;;;;;;;;;;4931263;28;20071;-59
2021/10/03 04:17:35;;;;;;;3.72;0.88;;;;;;;;;;4934133;28;20023;-59
2021/10/03 04:20:02;;;;;;;4.95;0.63;;;;;;;;;;4964296;28;20062;-58
2021/10/03 04:22:28;;;;;;;12.50;1.25;;;;;;;;;;4934469;28;20113;-59
2021/10/03 04:24:58;;;;;;;6.30;0.88;;;;;;;;;;4932855;28;20795;-59
2021/10/03 04:27:27;;;;;;;1.08;0.50;;;;;;;;;;4949499;28;20038;-59
2021/10/03 04:29:53;;;;;;;1.92;0.52;;;;;;;;;;4942674;28;20041;-59
2021/10/03 04:32:19;;;;;;;0.63;0.63;;;;;;;;;;4953738;28;20054;-59
2021/10/03 04:34:49;;;;;;;2.35;0.57;;;;;;;;;;4950649;28;20193;-59
2021/10/03 04:37:14;;;;;;;1.80;0.45;;;;;;;;;;4953571;28;20113;-58
2021/10/03 04:39:40;;;;;;;0.63;0.40;;;;;;;;;;4936793;28;20036;-59
2021/10/03 04:42:08;;;;;;;1.55;0.80;;;;;;;;;;4935456;28;20121;-59
2021/10/03 04:44:34;;;;;;;3.42;0.65;;;;;;;;;;4936327;28;20037;-59
2021/10/03 04:47:01;;;;;;;1.25;0.43;;;;;;;;;;4948667;28;20038;-58
2021/10/03 04:49:29;;;;;;;9.48;1.05;;;;;;;;;;4935314;28;20042;-58
2021/10/03 04:51:55;;;;;;;2.20;0.65;;;;;;;;;;4954643;28;20054;-58
2021/10/03 04:54:20;;;;;;;3.22;0.75;;;;;;;;;;4951049;28;20037;-58
2021/10/03 04:56:46;;;;;;;1.85;0.50;;;;;;;;;;4934663;28;20057;-58
2021/10/03 04:59:12;;;;;;;3.38;1.15;;;;;;;;;;4965189;28;20030;-58
2021/10/03 05:01:40;;;;;;;3.33;1.50;;;;;;;;;;4953351;28;20042;-58
2021/10/03 05:04:05;;;;;;;2.72;1.50;;;;;;;;;;4934159;28;20022;-59
2021/10/03 05:06:31;;;;;;;10.63;1.80;;;;;;;;;;4932409;28;20084;-60
2021/10/03 05:08:56;;;;;;;1.25;0.70;;;;;;;;;;4952546;28;20050;-60
2021/10/03 05:11:21;;;;;;;3.53;0.90;;;;;;;;;;4948294;28;20146;-60
2021/10/03 05:13:49;;;;;;;4.70;0.60;;;;;;;;;;4936062;28;20038;-59
2021/10/03 05:16:14;;;;;;;1.75;0.60;;;;;;;;;;4949168;28;20060;-60
2021/10/03 05:18:42;;;;;;;1.65;1.00;;;;;;;;;;4930113;28;20034;-59
2021/10/03 05:21:10;;;;;;;1.63;1.33;;;;;;;;;;4950303;28;20045;-59
2021/10/03 05:23:35;;;;;;;3.05;1.30;;;;;;;;;;4932172;28;20057;-60
2021/10/03 05:26:05;;;;;;;3.83;1.23;;;;;;;;;;4931504;28;20034;-59
2021/10/03 05:28:31;;;;;;;2.75;1.20;;;;;;;;;;4934160;28;20124;-60
2021/10/03 05:30:56;;;;;;;3.92;1.35;;;;;;;;;;4951624;28;20113;-60
2021/10/03 05:33:27;;;;;;;7.50;1.20;;;;;;;;;;4932543;28;20494;-60
2021/10/03 05:35:55;;;;;;;3.70;1.08;;;;;;;;;;4951225;28;20077;-60
2021/10/03 05:38:26;;;;;;;3.83;1.02;;;;;;;;;;4935261;28;20030;-59
2021/10/03 05:40:53;;;;;;;2.50;0.90;;;;;;;;;;4944561;28;20475;-59
2021/10/03 05:43:21;;;;;;;10.07;1.05;;;;;;;;;;4931418;28;20045;-60
2021/10/03 05:45:47;;;;;;;1.17;0.80;;;;;;;;;;4929752;28;20030;-61
2021/10/03 05:48:12;;;;;;;3.47;0.80;;;;;;;;;;4948957;28;20530;-61
2021/10/03 05:50:42;;;;;;;2.97;0.98;;;;;;;;;;4946972;28;20212;-59
2021/10/03 05:53:08;;;;;;;5.70;1.00;;;;;;;;;;4922636;28;20359;-59
2021/10/03 05:55:34;;;;;;;3.08;1.00;;;;;;;;;;4940447;28;20058;-59
2021/10/03 05:58:02;;;;;;;1.30;0.82;;;;;;;;;;4931119;28;20030;-59
2021/10/03 06:00:28;;;;;;;4.75;1.10;;;;;;;;;;4932022;28;20023;-59
2021/10/03 06:02:56;;;;;;;6.22;0.90;;;;;;;;;;4947602;28;20483;-59
2021/10/03 06:05:22;;;;;;;1.20;0.75;;;;;;;;;;4932828;28;20122;-59
2021/10/03 06:07:50;;;;;;;6.03;1.10;;;;;;;;;;4965527;28;20417;-59
2021/10/03 06:10:15;;;;;;;3.40;1.08;;;;;;;;;;4936349;28;20070;-59
2021/10/03 06:12:43;;;;;;;1.60;0.90;;;;;;;;;;4947046;28;20486;-59
2021/10/03 06:15:09;;;;;;;2.40;1.02;;;;;;;;;;4935649;28;20093;-59
2021/10/03 06:17:35;;;;;;;3.63;1.13;;;;;;;;;;4930336;28;20066;-58
2021/10/03 06:20:02;;;;;;;1.58;1.02;;;;;;;;;;4945444;28;20034;-59
2021/10/03 06:22:33;;;;;;;2.03;1.08;;;;;;;;;;4937545;28;20094;-59
2021/10/03 06:25:00;;;;;;;3.00;0.85;;;;;;;;;;4947212;28;20077;-58
2021/10/03 06:27:31;;;;;;;1.35;0.85;;;;;;;;;;4946725;28;20038;-60
2021/10/03 06:29:57;;;;;;;2.10;0.90;;;;;;;;;;4930897;28;20081;-58
2021/10/03 06:32:22;;;;;;;3.38;1.10;;;;;;;;;;4947033;28;20705;-58
2021/10/03 06:34:51;;;;;;;4.18;1.05;;;;;;;;;;4931962;28;20046;-58
2021/10/03 06:37:16;;;;;;;3.45;1.50;;;;;;;;;;4930345;28;20196;-59
2021/10/03 06:39:47;;;;;;;1.58;0.70;;;;;;;;;;4950713;28;20026;-59
2021/10/03 06:42:15;;;;;;;5.03;1.00;;;;;;;;;;4964279;28;20034;-58
2021/10/03 06:44:43;;;;;;;1.35;0.80;;;;;;;;;;4934082;28;20798;-58
2021/10/03 06:47:11;;;;;;;0.80;0.63;;;;;;;;;;4916052;28;21949;-58
2021/10/03 06:49:39;;;;;;;4.55;0.98;;;;;;;;;;4945746;28;20026;-58
2021/10/03 06:52:04;;;;;;;4.05;1.42;;;;;;;;;;4925276;28;20508;-58
2021/10/03 06:54:35;;;;;;;5.88;1.20;;;;;;;;;;4945618;28;20073;-58
2021/10/03 06:57:02;;;;;;;1.33;0.85;;;;;;;;;;4915885;28;20043;-58
2021/10/03 06:59:31;;;;;;;2.70;1.02;;;;;;;;;;4951383;28;20101;-59
2021/10/03 07:02:05;;;;;;;6.00;1.17;;;;;;;;;;4948433;28;20044;-58
2021/10/03 07:04:32;;;;;;;3.05;0.88;;;;;;;;;;4949870;28;20679;-58
2021/10/03 07:06:58;;;;;;;5.07;1.52;;;;;;;;;;4947728;28;20054;-59
2021/10/03 07:09:26;;;;;;;6.47;1.50;;;;;;;;;;4968261;28;21080;-59
2021/10/03 07:11:52;;;;;;;4.90;1.00;;;;;;;;;;4963599;28;20058;-59
2021/10/03 07:14:20;;;;;;;3.88;0.57;;;;;;;;;;4966626;28;20026;-59
2021/10/03 07:16:48;;;;;;;2.00;0.88;;;;;;;;;;4946495;28;20034;-59
2021/10/03 07:19:14;;;;;;;5.25;1.02;;;;;;;;;;4917152;28;20065;-59
2021/10/03 07:21:41;;;;;;;6.32;0.90;;;;;;;;;;4915622;28;20030;-59
2021/10/03 07:24:11;;;;;;;8.00;1.13;;;;;;;;;;4933219;28;20127;-60
2021/10/03 07:26:36;;;;;;;5.88;0.75;;;;;;;;;;4925944;28;20071;-59
2021/10/03 07:29:03;;;;;;;1.85;0.55;;;;;;;;;;4915830;28;20498;-60
2021/10/03 07:31:28;;;;;;;5.57;0.70;;;;;;;;;;4965586;28;20034;-59
2021/10/03 07:33:59;;;;;;;3.03;0.77;;;;;;;;;;4945669;28;20058;-59
2021/10/03 07:36:28;;;;;;;2.72;0.68;;;;;;;;;;4965919;28;20096;-59
2021/10/03 07:38:56;;;;;;;4.97;0.70;;;;;;;;;;4931792;28;20113;-58
2021/10/03 07:41:21;;;;;;;7.53;1.40;;;;;;;;;;4925439;28;20035;-58
2021/10/03 07:43:48;;;;;;;3.78;0.85;;;;;;;;;;4966638;28;20518;-59
2021/10/03 07:46:19;;;;;;;6.53;0.80;;;;;;;;;;4945710;28;20042;-60
2021/10/03 07:48:45;;;;;;;7.13;0.93;;;;;;;;;;4951190;28;20038;-59
2021/10/03 07:51:15;;;;;;;14.15;1.08;;;;;;;;;;4937223;28;20030;-59
2021/10/03 07:53:41;;;;;;;4.03;0.25;;;;;;;;;;4955589;28;20121;-59
2021/10/03 07:56:09;;;;;;;3.00;0.40;;;;;;;;;;4952516;28;20089;-59
2021/10/03 07:58:37;;;;;;;2.85;0.75;;;;;;;;;;4951400;28;20069;-59
2021/10/03 08:01:02;;;;;;;1.10;0.28;;;;;;;;;;4953399;28;20088;-58
2021/10/03 08:03:30;;;;;;;4.68;0.30;;;;;;;;;;4965719;28;20023;-58
2021/10/03 08:05:55;;;;;;;0.52;0.35;;;;;;;;;;4952217;28;20038;-58
2021/10/03 08:08:21;;;;;;;3.05;0.60;;;;;;;;;;4937804;28;20035;-58
2021/10/03 08:10:47;;;;;;;4.95;0.40;;;;;;;;;;4933484;28;20042;-58
2021/10/03 08:13:17;;;;;;;5.30;0.50;;;;;;;;;;4934870;28;20034;-57
2021/10/03 08:15:43;;;;;;;8.02;0.60;;;;;;;;;;4919347;28;20188;-57
2021/10/03 08:18:08;;;;;;;2.00;0.40;;;;;;;;;;4952729;28;20030;-58
2021/10/03 08:20:45;;;;;;;5.20;0.60;;;;;;;;;;4951804;28;20742;-58
2021/10/03 08:23:12;;;;;;;4.25;0.50;;;;;;;;;;4968551;28;20486;-58
2021/10/03 08:25:40;;;;;;;1.55;0.30;;;;;;;;;;4937143;28;20414;-59
2021/10/03 08:28:06;;;;;;;5.45;0.35;;;;;;;;;;4967571;28;20054;-59
2021/10/03 08:30:34;;;;;;;2.53;0.38;;;;;;;;;;4951206;28;20046;-58
2021/10/03 08:33:01;;;;;;;3.13;0.40;;;;;;;;;;4963768;28;20058;-59
2021/10/03 08:35:27;;;;;;;5.45;0.60;;;;;;;;;;4919240;28;20593;-59
2021/10/03 08:37:55;;;;;;;0.60;0.30;;;;;;;;;;4936209;28;20050;-59
2021/10/03 08:40:21;;;;;;;1.13;0.30;;;;;;;;;;4935623;28;20080;-59
2021/10/03 08:42:46;;;;;;;1.27;0.38;;;;;;;;;;4965993;28;21873;-59
2021/10/03 08:45:12;;;;;;;3.10;0.63;;;;;;;;;;4937017;28;20126;-59
2021/10/03 08:47:41;;;;;;;3.13;0.47;;;;;;;;;;4966855;28;20038;-59
2021/10/03 08:50:09;;;;;;;3.80;0.75;;;;;;;;;;4950559;28;20089;-59
2021/10/03 08:52:36;;;;;;;1.70;0.50;;;;;;;;;;4949960;28;20030;-59
2021/10/03 08:55:01;;;;;;;1.35;0.43;;;;;;;;;;4935915;28;20037;-60
2021/10/03 08:57:27;;;;;;;0.73;0.20;;;;;;;;;;4968175;28;20030;-59
2021/10/03 09:00:02;;;;;;;3.40;0.30;;;;;;;;;;4935525;28;20029;-59
2021/10/03 09:02:27;;;;;;;0.77;0.10;;;;;;;;;;4965693;28;20034;-59
2021/10/03 09:05:00;;;;;;;1.13;0.30;;;;;;;;;;4934712;28;20081;-59
2021/10/03 09:07:27;;;;;;;3.03;0.40;;;;;;;;;;4952483;28;21991;-59
2021/10/03 09:09:58;;;;;;;0.30;0.20;;;;;;;;;;4936838;28;20093;-59
2021/10/03 09:12:31;;;;;;;2.38;0.30;;;;;;;;;;4950916;28;20054;-59
2021/10/03 09:15:02;;;;;;;0.32;0.30;;;;;;;;;;4934062;28;20026;-59
2021/10/03 09:17:30;;;;;;;3.28;0.15;;;;;;;;;;4935877;28;20038;-59
2021/10/03 09:20:09;;;;;;;4.70;0.28;;;;;;;;;;4968710;28;20049;-58
2021/10/03 09:22:56;;;;;;;0.88;0.40;;;;;;;;;;4965231;28;20027;-58
2021/10/03 09:25:31;;;;;;;0.65;0.35;;;;;;;;;;4950700;28;20046;-58
2021/10/03 09:27:56;;;;;;;1.77;0.63;;;;;;;;;;4964573;28;20037;-58
2021/10/03 09:30:22;;;;;;;1.35;0.45;;;;;;;;;;4918551;28;20034;-58
2021/10/03 09:32:56;;;;;;;2.92;0.45;;;;;;;;;;4951353;28;20050;-59
2021/10/03 09:35:25;;;;;;;0.65;0.50;;;;;;;;;;4947622;28;20054;-58
2021/10/03 09:37:52;;;;;;;3.40;0.40;;;;;;;;;;4969179;28;20858;-59
2021/10/03 09:40:18;;;;;;;3.42;0.45;;;;;;;;;;4933722;28;20038;-58
2021/10/03 09:42:50;;;;;;;0.45;0.40;;;;;;;;;;4950473;28;20137;-58
2021/10/03 09:45:22;;;;;;;2.97;0.50;;;;;;;;;;4963376;28;20034;-59
2021/10/03 09:48:16;;;;;;;0.43;0.20;;;;;;;;;;4951837;28;20532;-58
2021/10/03 09:50:45;;;;;;;5.03;0.30;;;;;;;;;;4963484;28;20089;-59
2021/10/03 09:53:12;;;;;;;1.55;0.10;;;;;;;;;;4948495;28;20030;-59
2021/10/03 09:55:37;;;;;;;0.20;0.20;;;;;;;;;;4942164;28;20038;-58
2021/10/03 09:58:03;;;;;;;0.57;0.10;;;;;;;;;;4927015;28;20798;-59
2021/10/03 10:00:29;;;;;;;2.40;0.20;;;;;;;;;;4949906;28;20026;-59
2021/10/03 10:02:55;;;;;;;1.02;0.20;;;;;;;;;;4951315;28;20851;-60
2021/10/03 10:05:24;;;;;;;1.02;0.35;;;;;;;;;;4948276;28;20034;-57
2021/10/03 10:07:51;;;;;;;3.15;0.43;;;;;;;;;;4929336;28;20049;-59
2021/10/03 10:10:17;;;;;;;1.27;0.20;;;;;;;;;;4951126;28;20037;-58
2021/10/03 10:12:45;;;;;;;0.28;0.20;;;;;;;;;;4964810;28;22029;-58
2021/10/03 10:15:12;;;;;;;5.03;0.47;;;;;;;;;;4933361;28;20069;-59
2021/10/03 10:17:41;;;;;;;2.45;0.30;;;;;;;;;;4935004;28;20030;-59
2021/10/03 10:20:20;;;;;;;0.85;0.28;;;;;;;;;;4949700;28;20702;-58
2021/10/03 10:22:58;;;;;;;1.90;0.40;;;;;;;;;;4969504;28;20045;-59
2021/10/03 10:25:42;;;;;;;0.52;0.30;;;;;;;;;;4949215;28;20409;-58
2021/10/03 10:28:09;;;;;;;2.30;0.38;;;;;;;;;;4951227;28;20030;-58
2021/10/03 10:30:36;;;;;;;2.58;0.40;;;;;;;;;;4946977;28;20642;-58
2021/10/03 10:33:10;;;;;;;2.78;0.50;;;;;;;;;;4963581;28;20042;-59
2021/10/03 10:35:41;;;;;;;1.27;0.35;;;;;;;;;;4962480;28;20041;-58
2021/10/03 10:38:19;;;;;;;0.43;0.25;;;;;;;;;;4968556;28;20120;-59
2021/10/03 10:40:47;;;;;;;2.13;0.25;;;;;;;;;;4948965;28;20037;-59
2021/10/03 10:43:12;;;;;;;1.30;0.32;;;;;;;;;;4921364;28;20494;-60
2021/10/03 10:45:41;;;;;;;3.17;0.30;;;;;;;;;;4965316;28;20042;-58
2021/10/03 10:48:14;;;;;;;2.00;0.47;;;;;;;;;;4934311;28;20065;-58
2021/10/03 10:50:47;;;;;;;0.93;0.50;;;;;;;;;;4942975;28;20917;-60
2021/10/03 10:53:21;;;;;;;0.63;0.50;;;;;;;;;;4967523;28;20048;-58
2021/10/03 10:56:06;;;;;;;1.60;0.60;;;;;;;;;;4926626;28;20039;-59
2021/10/03 10:58:37;;;;;;;3.35;0.52;;;;;;;;;;4947989;28;20048;-59
2021/10/03 11:01:07;;;;;;;0.80;0.77;;;;;;;;;;4950242;28;22136;-58
2021/10/03 11:03:41;;;;;;;2.95;0.80;;;;;;;;;;4966213;28;20030;-58
2021/10/03 11:06:06;;;;;;;6.25;0.85;;;;;;;;;;4948966;28;20141;-58
2021/10/03 11:08:34;;;;;;;2.72;0.60;;;;;;;;;;4965529;28;20053;-58
2021/10/03 11:11:03;;;;;;;1.42;0.50;;;;;;;;;;4933251;28;21022;-60
2021/10/03 11:13:38;;;;;;;2.15;0.60;;;;;;;;;;4931377;28;20180;-59
2021/10/03 11:16:25;;;;;;;2.67;0.88;;;;;;;;;;4962717;28;20141;-60
2021/10/03 11:18:51;;;;;;;1.33;0.70;;;;;;;;;;4971219;28;20018;-60
2021/10/03 11:21:32;;;;;;;1.25;0.68;;;;;;;;;;4952741;28;20030;-62
2021/10/03 11:23:59;;;;;;;3.45;1.00;;;;;;;;;;4953092;28;20129;-59
2021/10/03 11:26:25;;;;;;;2.15;0.85;;;;;;;;;;4954100;28;20666;-59
2021/10/03 11:28:57;;;;;;;4.07;1.00;;;;;;;;;;4927768;28;20039;-59
2021/10/03 11:31:37;;;;;;;1.38;0.77;;;;;;;;;;4937417;28;20091;-59
2021/10/03 11:34:04;;;;;;;7.13;0.82;;;;;;;;;;4953196;28;20066;-59
2021/10/03 11:36:32;;;;;;;5.57;0.50;;;;;;;;;;4951675;28;20035;-59
2021/10/03 11:39:00;;;;;;;4.43;0.50;;;;;;;;;;4933061;28;20041;-61
2021/10/03 11:41:29;;;;;;;1.13;0.57;;;;;;;;;;4921924;28;20034;-64
2021/10/03 11:43:54;;;;;;;2.67;0.50;;;;;;;;;;4952022;28;20369;-61
2021/10/03 11:46:19;;;;;;;1.27;0.50;;;;;;;;;;4930557;28;20691;-61
2021/10/03 11:48:53;;;;;;;0.40;0.40;;;;;;;;;;4945517;28;20726;-60
2021/10/03 11:51:19;;;;;;;1.42;0.22;;;;;;;;;;4928839;28;20034;-60
2021/10/03 11:53:51;;;;;;;4.50;0.32;;;;;;;;;;4933955;28;20801;-61
2021/10/03 11:56:19;;;;;;;2.10;0.40;;;;;;;;;;4937289;28;20181;-59
2021/10/03 11:58:46;;;;;;;1.10;0.45;;;;;;;;;;4967604;28;20034;-60
2021/10/03 12:01:14;;;;;;;1.80;0.40;;;;;;;;;;4937572;28;20053;-59
2021/10/03 12:03:47;;;;;;;3.22;0.30;;;;;;;;;;4969964;28;20026;-59
2021/10/03 12:06:16;;;;;;;1.42;0.45;;;;;;;;;;4968521;28;20034;-59
2021/10/03 12:08:46;;;;;;;5.22;0.60;;;;;;;;;;4952509;28;20030;-59
2021/10/03 12:11:11;;;;;;;3.88;0.55;;;;;;;;;;4943243;28;20153;-58
2021/10/03 12:13:37;;;;;;;1.85;0.60;;;;;;;;;;4952887;28;20060;-58
2021/10/03 12:16:05;;;;;;;0.45;0.30;;;;;;;;;;4935000;28;20402;-58
2021/10/03 12:18:36;;;;;;;0.30;0.28;;;;;;;;;;4969725;28;20026;-60
2021/10/03 12:21:13;;;;;;;0.73;0.20;;;;;;;;;;4951040;28;20046;-59
2021/10/03 12:23:39;;;;;;;4.10;0.50;;;;;;;;;;4930287;28;20030;-59
2021/10/03 12:26:19;;;;;;;0.30;0.30;;;;;;;;;;4935882;28;20599;-59
2021/10/03 12:29:05;;;;;;;1.65;0.60;;;;;;;;;;4946356;28;20042;-62
2021/10/03 12:31:52;;;;;;;0.63;0.45;;;;;;;;;;4952507;28;20034;-58
2021/10/03 12:34:21;;;;;;;5.35;0.30;;;;;;;;;;4954224;28;20046;-58
2021/10/03 12:36:50;;;;;;;0.40;0.40;;;;;;;;;;4950951;28;20054;-58
2021/10/03 12:39:16;;;;;;;2.50;0.40;;;;;;;;;;4970757;28;20632;-59
2021/10/03 12:41:44;;;;;;;3.17;0.50;;;;;;;;;;4950090;28;20022;-58
2021/10/03 12:44:12;;;;;;;3.20;0.68;;;;;;;;;;4952124;28;20081;-59
2021/10/03 12:46:37;;;;;;;3.35;0.63;;;;;;;;;;4935853;28;20038;-59
2021/10/03 12:49:07;;;;;;;0.98;0.32;;;;;;;;;;4952544;28;20073;-58
2021/10/03 12:51:35;;;;;;;1.55;0.45;;;;;;;;;;4935991;28;20050;-58
2021/10/03 12:54:03;;;;;;;0.22;0.22;;;;;;;;;;4935381;28;20057;-58
2021/10/03 12:56:29;;;;;;;2.05;0.40;;;;;;;;;;4952994;28;20038;-58
2021/10/03 12:58:57;;;;;;;3.95;0.68;;;;;;;;;;4970389;28;20401;-58
2021/10/03 13:01:22;;;;;;;8.18;0.68;;;;;;;;;;4934582;28;20027;-58
2021/10/03 13:03:50;;;;;;;2.72;0.75;;;;;;;;;;4937081;28;20058;-58
2021/10/03 13:06:16;;;;;;;0.75;0.30;;;;;;;;;;4949302;28;20891;-58
2021/10/03 13:08:44;;;;;;;0.30;0.28;;;;;;;;;;4955253;28;21044;-58
2021/10/03 13:11:11;;;;;;;0.73;0.38;;;;;;;;;;4916883;28;20034;-58
2021/10/03 13:13:37;;;;;;;5.72;0.60;;;;;;;;;;4934731;28;20049;-58
2021/10/03 13:16:02;;;;;;;0.95;0.70;;;;;;;;;;4937219;28;20038;-58
2021/10/03 13:18:34;;;;;;;2.40;0.82;;;;;;;;;;4918559;28;20045;-58
2021/10/03 13:21:02;;;;;;;11.95;0.90;;;;;;;;;;4950354;28;20073;-58
2021/10/03 13:23:33;;;;;;;5.53;1.15;;;;;;;;;;4952167;28;20109;-58
2021/10/03 13:25:58;;;;;;;7.95;1.50;;;;;;;;;;4934585;28;20039;-58
2021/10/03 13:28:28;;;;;;;4.82;1.40;;;;;;;;;;4950068;28;20022;-58
2021/10/03 13:30:53;;;;;;;1.45;1.08;;;;;;;;;;4968840;28;20057;-58
2021/10/03 13:33:21;;;;;;;1.80;1.38;;;;;;;;;;4966357;28;20073;-58
2021/10/03 13:35:49;;;;;;;13.30;2.03;;;;;;;;;;4933131;28;20118;-58
2021/10/03 13:38:18;;;;;;;11.00;1.40;;;;;;;;;;4918397;28;20042;-58
2021/10/03 13:40:43;;;;;;;2.90;1.25;;;;;;;;;;4933896;28;20034;-58
2021/10/03 13:43:12;;;;;;;2.53;1.40;;;;;;;;;;4935431;28;20149;-58
2021/10/03 13:45:39;;;;;;;1.73;1.13;;;;;;;;;;4948912;28;20042;-59
2021/10/03 13:48:12;;;;;;;3.47;1.20;;;;;;;;;;4936350;28;20038;-59
2021/10/03 13:50:38;;;;;;;3.05;1.30;;;;;;;;;;4918385;28;20053;-59
2021/10/03 13:53:03;;;;;;;4.03;1.10;;;;;;;;;;4965596;28;20042;-61
2021/10/03 13:55:33;;;;;;;6.25;1.60;;;;;;;;;;4932343;28;20026;-58
2021/10/03 13:57:59;;;;;;;3.50;1.30;;;;;;;;;;4949481;28;20030;-58
2021/10/03 14:00:27;;;;;;;2.95;1.40;;;;;;;;;;4933595;28;20528;-57
2021/10/03 14:02:52;;;;;;;3.53;1.67;;;;;;;;;;4919241;28;21035;-58
2021/10/03 14:05:24;;;;;;;6.45;1.23;;;;;;;;;;4950108;28;20553;-57
2021/10/03 14:07:52;;;;;;;4.50;1.27;;;;;;;;;;4950621;28;20030;-59
2021/10/03 14:10:20;;;;;;;3.30;0.90;;;;;;;;;;4965081;28;20482;-58
2021/10/03 14:12:46;;;;;;;0.80;0.55;;;;;;;;;;4964810;28;20052;-58
2021/10/03 14:15:14;;;;;;;1.13;0.57;;;;;;;;;;4934493;28;20099;-58
2021/10/03 14:17:40;;;;;;;3.50;0.50;;;;;;;;;;4950359;28;20039;-57
2021/10/03 14:20:06;;;;;;;0.52;0.40;;;;;;;;;;4934950;28;20072;-57
2021/10/03 14:22:31;;;;;;;1.05;0.38;;;;;;;;;;4934287;28;20100;-58
2021/10/03 14:24:57;;;;;;;1.52;0.40;;;;;;;;;;4950266;28;20741;-58
2021/10/03 14:27:25;;;;;;;3.55;0.40;;;;;;;;;;4967278;28;20109;-59
2021/10/03 14:29:56;;;;;;;4.07;0.43;;;;;;;;;;4933935;28;20108;-58
2021/10/03 14:32:21;;;;;;;8.60;0.60;;;;;;;;;;4949946;28;20129;-59
2021/10/03 14:34:47;;;;;;;3.25;0.38;;;;;;;;;;4934601;28;20044;-58
2021/10/03 14:37:13;;;;;;;0.45;0.25;;;;;;;;;;4949055;28;20375;-58
2021/10/03 14:39:42;;;;;;;0.45;0.30;;;;;;;;;;4933444;28;20530;-58
2021/10/03 14:42:07;;;;;;;0.32;0.20;;;;;;;;;;4947733;28;20073;-57
2021/10/03 14:44:33;;;;;;;0.30;0.20;;;;;;;;;;4935043;28;20125;-58
2021/10/03 14:46:58;;;;;;;0.10;0.10;;;;;;;;;;4932582;28;20042;-57
2021/10/03 14:49:26;;;;;;;0.10;0.10;;;;;;;;;;4934919;28;20121;-59